Barlaston, United Kingdom
Current Conditions -  °F | °C
As of 10:50 PM on Thursday 27 Nov 2014 (Local Time) from EGOS Reporting Station
Haze Haze  
Wind Chill: 39°   Ceiling: 2200
Heat Index: 43°   Visibility: 5mi
Dew Point: 43°   Wind: 7mph
Humidity: 100%   Direction: 90°E
Pressure: 29.56"   Gusts: NA
Location:  52.94°N, 2.17°W
Report Text: EGOS 272250Z AUTO 09006KT 8000 BR SCT014/// BKN022/// 06/06 Q1001
Loading
Personal Weather Stations






























Interactive Weather Map New forecast layout! Learn more

10-Day Weather Forecast

Advertisements
Track Severe Weather on mobile